Terminal Aerodrome Forecast
Issued by NWS Pocatello, ID

Home | Current Version | Previous Version | Text Only | Print | Product List | Glossary On
Versions: 1 2 3 4 5 6 7 8 9 10 11 12 13 14 15
101
FTUS45 KPIH 241124
TAFIDA
TAF
KIDA 241124Z 2412/2512 20007KT P6SM SCT010
     FM241800 20015G25KT P6SM BKN150
     FM250400 20012KT P6SM VCSH SCT015 OVC035
     FM250800 20008KT 6SM -SHRA BR SCT015 OVC025=

USA.gov is the U.S. government's official web portal to all federal, state and local government web resources and services.